Terminal Aerodrome Forecast
Issued by NWS Wakefield, VA

Home | Current Version | Previous Version | Text Only | Print | Product List | Glossary On
Versions: 1 2 3 4 5 6 7 8 9 10 11 12 13 14
000
FTUS41 KAKQ 191100
TAFRIC
TAF
KRIC 191130Z 1912/2012 03005KT P6SM VCSH SCT060 OVC100
     FM191400 05011KT P6SM SCT040 OVC060
     FM200200 VRB03KT P6SM BKN100=

USA.gov is the U.S. government's official web portal to all federal, state and local government web resources and services.